createdAt,value
2019-02-16T00:01:41.395Z,4.70
2019-02-16T00:04:12.115Z,4.70
2019-02-16T00:06:40.020Z,4.80
2019-02-16T00:09:08.362Z,5.40
2019-02-16T00:11:36.243Z,5.90
2019-02-16T00:14:06.153Z,6.30
2019-02-16T00:16:35.013Z,6.50
2019-02-16T00:19:03.345Z,6.60
2019-02-16T00:21:32.604Z,6.50
2019-02-16T00:24:01.221Z,6.30
2019-02-16T00:26:33.279Z,5.90
2019-02-16T00:29:02.739Z,5.50
2019-02-16T00:31:33.640Z,5.30
2019-02-16T00:34:09.873Z,5.10
2019-02-16T00:36:40.444Z,5.00
2019-02-16T00:39:11.734Z,5.00
2019-02-16T00:41:40.305Z,4.90
2019-02-16T00:44:08.597Z,4.80
2019-02-16T00:46:37.084Z,4.80
2019-02-16T00:49:07.553Z,4.70
2019-02-16T00:51:41.345Z,4.70
2019-02-16T00:54:09.935Z,4.60
2019-02-16T00:56:41.109Z,4.50
2019-02-16T00:59:14.868Z,4.50
2019-02-16T01:01:46.228Z,4.50
2019-02-16T01:04:15.707Z,4.40
2019-02-16T01:06:44.898Z,4.40
2019-02-16T01:09:13.060Z,4.30
2019-02-16T01:11:44.035Z,4.30
2019-02-16T01:14:19.021Z,4.30
2019-02-16T01:16:48.114Z,4.40
2019-02-16T01:19:16.126Z,4.90
2019-02-16T01:21:44.573Z,5.20
2019-02-16T01:24:13.887Z,5.60
2019-02-16T01:26:41.894Z,5.80
2019-02-16T01:29:10.655Z,6.00
2019-02-16T01:31:40.919Z,6.10
2019-02-16T01:34:09.293Z,6.20
2019-02-16T01:36:37.131Z,6.30
2019-02-16T01:39:06.676Z,6.40
2019-02-16T01:41:35.566Z,6.50
2019-02-16T01:44:05.076Z,6.60
2019-02-16T01:46:35.457Z,6.80
2019-02-16T01:49:07.263Z,6.80
2019-02-16T01:51:36.379Z,6.80
2019-02-16T01:54:13.371Z,6.80
2019-02-16T01:57:04.270Z,6.80
2019-02-16T01:59:39.913Z,7.00
2019-02-16T02:02:12.633Z,7.00
2019-02-16T02:04:49.141Z,7.00
2019-02-16T02:07:24.582Z,7.00
2019-02-16T02:09:59.515Z,6.90
2019-02-16T02:12:28.712Z,6.90
2019-02-16T02:15:03.485Z,6.80
2019-02-16T02:17:32.584Z,6.70
2019-02-16T02:20:01.250Z,6.60
2019-02-16T02:22:30.016Z,6.60
2019-02-16T02:24:58.431Z,6.70
2019-02-16T02:27:27.054Z,6.70
2019-02-16T02:29:56.225Z,6.60
2019-02-16T02:32:25.100Z,6.50
2019-02-16T02:41:04.249Z,6.10
2019-02-16T02:43:33.902Z,5.70
2019-02-16T02:46:02.623Z,5.30
2019-02-16T02:48:31.697Z,5.20
2019-02-16T02:51:00.028Z,5.00
2019-02-16T02:53:31.219Z,5.00
2019-02-16T02:55:58.303Z,4.80
2019-02-16T02:58:26.930Z,4.70
2019-02-16T03:01:01.640Z,4.70
2019-02-16T03:03:30.764Z,4.70
2019-02-16T03:05:59.189Z,4.80
2019-02-16T03:08:29.273Z,4.90
2019-02-16T03:10:57.801Z,5.00
2019-02-16T03:13:25.832Z,5.10
2019-02-16T03:15:56.376Z,5.20
2019-02-16T03:18:24.763Z,5.00
2019-02-16T03:20:53.215Z,4.80
2019-02-16T03:23:24.772Z,4.60
2019-02-16T03:26:08.804Z,4.40
2019-02-16T03:29:14.132Z,4.30
2019-02-16T03:32:17.689Z,4.20
2019-02-16T03:35:20.479Z,4.20
2019-02-16T03:38:30.524Z,4.10
2019-02-16T03:40:58.773Z,4.10
2019-02-16T03:43:26.787Z,4.10
2019-02-16T03:45:55.097Z,4.00
2019-02-16T03:48:23.981Z,4.00
2019-02-16T03:50:52.530Z,4.10
2019-02-16T03:53:21.230Z,4.10
2019-02-16T03:55:49.071Z,4.30
2019-02-16T03:58:17.113Z,4.50
2019-02-16T04:00:48.333Z,4.70
2019-02-16T04:03:17.554Z,5.00
2019-02-16T04:05:45.425Z,5.40
2019-02-16T04:08:14.203Z,5.40
2019-02-16T04:10:45.114Z,5.40
2019-02-16T04:13:13.507Z,5.10
2019-02-16T04:15:41.971Z,5.30
2019-02-16T04:18:13.326Z,5.60
2019-02-16T04:20:41.924Z,5.70
2019-02-16T04:23:10.714Z,5.80
2019-02-16T04:25:39.014Z,5.90
2019-02-16T04:28:07.382Z,6.00
2019-02-16T04:30:36.192Z,6.00
2019-02-16T04:33:14.099Z,5.90
2019-02-16T04:35:42.685Z,6.00
2019-02-16T04:38:10.736Z,6.00
2019-02-16T04:40:39.003Z,6.00
2019-02-16T04:43:10.453Z,6.10
2019-02-16T04:48:57.140Z,6.00
2019-02-16T04:51:25.521Z,6.00
2019-02-16T04:53:53.759Z,5.90
2019-02-16T04:56:21.891Z,6.00
2019-02-16T04:58:52.548Z,6.00
2019-02-16T05:01:21.570Z,5.90
2019-02-16T05:03:50.468Z,5.80
2019-02-16T05:06:21.541Z,5.80
2019-02-16T05:08:49.788Z,5.80
2019-02-16T05:11:18.171Z,5.70
2019-02-16T05:13:45.958Z,5.70
2019-02-16T05:16:14.939Z,5.70
2019-02-16T05:22:12.036Z,5.60
2019-02-16T05:24:40.275Z,5.70
2019-02-16T05:27:08.152Z,5.70
2019-02-16T05:29:36.616Z,5.60
2019-02-16T05:32:04.637Z,5.60
2019-02-16T05:34:33.769Z,5.60
2019-02-16T05:37:02.052Z,5.70
2019-02-16T05:39:30.341Z,5.70
2019-02-16T05:42:01.412Z,5.70
2019-02-16T05:44:30.566Z,5.60
2019-02-16T05:46:59.802Z,5.60
2019-02-16T05:49:28.898Z,5.50
2019-02-16T05:52:01.237Z,5.50
2019-02-16T05:54:37.216Z,5.50
2019-02-16T05:57:24.630Z,5.50
2019-02-16T06:00:23.367Z,5.50
2019-02-16T06:09:20.968Z,5.50
2019-02-16T06:11:57.398Z,5.50
2019-02-16T06:14:30.863Z,5.50
2019-02-16T06:17:04.620Z,5.50
2019-02-16T06:23:04.868Z,5.50
2019-02-16T06:25:33.894Z,5.60
2019-02-16T06:28:18.474Z,5.70
2019-02-16T06:30:49.241Z,5.70
2019-02-16T06:33:17.982Z,5.70
2019-02-16T06:35:57.680Z,5.70
2019-02-16T06:38:44.243Z,5.70
2019-02-16T06:41:35.868Z,5.70
2019-02-16T06:44:09.499Z,5.60
2019-02-16T06:49:25.951Z,5.60
2019-02-16T06:55:31.802Z,5.70
2019-02-16T06:58:07.955Z,5.90
2019-02-16T07:00:53.463Z,6.00
2019-02-16T07:03:21.266Z,6.10
2019-02-16T07:05:53.106Z,6.60
2019-02-16T07:08:30.298Z,7.60
2019-02-16T07:10:59.515Z,8.50
2019-02-16T07:17:30.976Z,10.20
2019-02-16T07:19:59.963Z,11.00
2019-02-16T07:23:24.808Z,11.50
2019-02-16T07:30:16.205Z,11.30
2019-02-16T07:33:03.933Z,11.10
2019-02-16T07:39:24.095Z,12.00
2019-02-16T07:42:04.050Z,12.70
2019-02-16T07:44:53.781Z,12.50
2019-02-16T07:47:36.634Z,12.40
2019-02-16T07:50:26.311Z,13.30
2019-02-16T07:56:29.993Z,13.60
2019-02-16T07:59:46.300Z,14.40
2019-02-16T08:06:02.062Z,16.10
2019-02-16T08:08:50.630Z,16.20
2019-02-16T08:12:29.624Z,16.00
2019-02-16T08:15:22.952Z,16.50
2019-02-16T08:18:42.152Z,16.60
2019-02-16T08:27:43.484Z,18.60
2019-02-16T08:30:23.087Z,18.80
2019-02-16T08:33:08.588Z,17.10
2019-02-16T08:35:58.028Z,16.50
2019-02-16T08:38:48.693Z,16.00
2019-02-16T08:41:57.881Z,16.60
2019-02-16T08:44:47.463Z,17.30
2019-02-16T08:47:38.048Z,18.20
2019-02-16T08:50:29.542Z,18.10
2019-02-16T08:53:32.119Z,17.50
2019-02-16T08:56:20.285Z,17.70
2019-02-16T08:59:13.511Z,18.50
2019-02-16T09:01:54.598Z,18.70
2019-02-16T09:05:08.718Z,17.20
2019-02-16T09:08:06.884Z,17.30
2019-02-16T09:13:43.380Z,17.10
2019-02-16T09:16:43.728Z,17.10
2019-02-16T09:19:31.222Z,17.00
2019-02-16T09:22:36.569Z,16.90
2019-02-16T09:25:29.044Z,16.60
2019-02-16T09:28:19.644Z,16.50
2019-02-16T09:31:11.840Z,16.30
2019-02-16T09:34:05.508Z,16.50
2019-02-16T09:37:11.535Z,16.20
2019-02-16T09:40:16.255Z,16.00
2019-02-16T09:43:14.053Z,16.10
2019-02-16T09:46:20.265Z,15.90
2019-02-16T09:49:19.989Z,15.80
2019-02-16T09:52:16.249Z,15.40
2019-02-16T09:55:20.468Z,15.80
2019-02-16T09:58:12.755Z,15.80
2019-02-16T10:00:51.903Z,16.00
2019-02-16T10:03:43.049Z,15.90
2019-02-16T10:06:39.727Z,16.10
2019-02-16T10:09:31.772Z,16.30
2019-02-16T10:12:46.916Z,15.80
2019-02-16T10:16:05.265Z,15.30
2019-02-16T10:19:03.273Z,15.10
2019-02-16T10:22:00.615Z,14.90
2019-02-16T10:24:41.433Z,15.00
2019-02-16T10:27:33.096Z,14.80
2019-02-16T10:30:30.291Z,15.10
2019-02-16T10:33:29.783Z,14.70
2019-02-16T10:43:00.395Z,14.70
2019-02-16T10:45:55.631Z,14.80
2019-02-16T10:55:51.379Z,14.60
2019-02-16T10:58:45.598Z,14.70
2019-02-16T11:01:41.712Z,14.80
2019-02-16T11:04:52.513Z,14.70
2019-02-16T11:08:02.506Z,14.70
2019-02-16T11:11:02.428Z,14.90
2019-02-16T11:17:35.181Z,15.10
2019-02-16T11:20:33.622Z,15.10
2019-02-16T11:23:23.768Z,15.40
2019-02-16T11:26:19.634Z,15.30
2019-02-16T11:29:11.097Z,15.10
2019-02-16T11:32:25.992Z,15.20
2019-02-16T11:35:26.353Z,15.10
2019-02-16T11:38:02.122Z,15.20
2019-02-16T11:41:37.584Z,15.40
2019-02-16T11:44:28.228Z,15.30
2019-02-16T11:47:32.299Z,15.30
2019-02-16T11:50:16.512Z,15.30
2019-02-16T11:53:40.463Z,15.30
2019-02-16T11:56:37.182Z,15.50
2019-02-16T11:59:34.324Z,15.30
2019-02-16T12:02:28.360Z,15.10
2019-02-16T12:05:24.870Z,15.10
2019-02-16T12:08:22.280Z,15.30
2019-02-16T12:11:14.469Z,15.40
2019-02-16T12:14:18.129Z,15.30
2019-02-16T12:17:40.801Z,15.30
2019-02-16T12:20:33.363Z,15.30
2019-02-16T12:23:15.536Z,15.50
2019-02-16T12:29:12.635Z,15.50
2019-02-16T12:32:31.107Z,15.50
2019-02-16T12:35:20.491Z,15.70
2019-02-16T12:38:17.223Z,15.60
2019-02-16T12:41:11.549Z,15.70
2019-02-16T12:44:17.916Z,15.80
2019-02-16T12:47:04.477Z,15.70
2019-02-16T12:49:59.483Z,15.60
2019-02-16T12:52:58.876Z,15.70
2019-02-16T12:56:02.552Z,15.60
2019-02-16T12:58:54.056Z,15.30
2019-02-16T13:01:56.982Z,15.10
2019-02-16T13:04:53.810Z,15.20
2019-02-16T13:11:16.846Z,15.10
2019-02-16T13:14:11.142Z,15.10
2019-02-16T13:17:05.810Z,15.00
2019-02-16T13:20:03.619Z,15.00
2019-02-16T13:22:58.224Z,15.00
2019-02-16T13:26:05.517Z,15.00
2019-02-16T13:35:11.152Z,15.10
2019-02-16T13:38:18.269Z,15.10
2019-02-16T13:41:07.228Z,15.10
2019-02-16T13:43:55.075Z,15.00
2019-02-16T13:47:15.909Z,14.90
2019-02-16T13:56:18.884Z,14.70
2019-02-16T13:59:07.841Z,14.70
2019-02-16T14:01:50.692Z,14.60
2019-02-16T14:04:40.497Z,14.50
2019-02-16T14:07:28.380Z,14.50
2019-02-16T14:10:31.840Z,14.50
2019-02-16T14:13:44.368Z,14.50
2019-02-16T14:16:28.645Z,14.40
2019-02-16T14:18:57.857Z,14.40
2019-02-16T14:21:26.822Z,14.40
2019-02-16T14:24:12.495Z,14.40
2019-02-16T14:29:30.964Z,14.50
2019-02-16T14:32:19.596Z,14.60
2019-02-16T14:35:00.105Z,14.70
2019-02-16T14:37:42.079Z,14.70
2019-02-16T14:40:15.782Z,14.60
2019-02-16T14:43:07.842Z,14.60
2019-02-16T14:46:02.608Z,14.50
2019-02-16T14:48:39.444Z,14.50
2019-02-16T14:51:21.642Z,14.50
2019-02-16T14:53:54.558Z,14.40
2019-02-16T14:56:30.153Z,14.40
2019-02-16T14:59:03.441Z,14.30
2019-02-16T15:01:39.678Z,14.20
2019-02-16T15:04:12.224Z,14.10
2019-02-16T15:06:52.868Z,14.00
2019-02-16T15:09:37.916Z,14.00
2019-02-16T15:12:11.920Z,13.90
2019-02-16T15:14:46.131Z,13.90
2019-02-16T15:17:25.337Z,13.90
2019-02-16T15:20:15.110Z,13.80
2019-02-16T15:23:10.489Z,13.80
2019-02-16T15:28:59.711Z,13.80
2019-02-16T15:31:39.554Z,13.80
2019-02-16T15:34:14.150Z,13.60
2019-02-16T15:36:58.150Z,13.50
2019-02-16T15:39:32.518Z,13.40
2019-02-16T15:42:57.367Z,13.40
2019-02-16T15:46:16.148Z,13.30
2019-02-16T15:52:04.268Z,13.00
2019-02-16T15:55:22.637Z,12.90
2019-02-16T15:57:53.410Z,12.80
2019-02-16T16:00:49.898Z,12.70
2019-02-16T16:03:25.839Z,12.60
2019-02-16T16:06:35.977Z,12.50
2019-02-16T16:09:32.227Z,12.40
2019-02-16T16:12:29.267Z,12.30
2019-02-16T16:15:06.819Z,12.30
2019-02-16T16:18:13.626Z,12.20
2019-02-16T16:20:54.653Z,12.10
2019-02-16T16:24:07.042Z,12.00
2019-02-16T16:26:57.567Z,11.90
2019-02-16T16:29:53.512Z,11.70
2019-02-16T16:32:40.094Z,11.60
2019-02-16T16:35:49.274Z,11.50
2019-02-16T16:38:45.812Z,11.50
2019-02-16T16:41:34.969Z,11.40
2019-02-16T16:44:22.249Z,11.20
2019-02-16T16:47:16.186Z,11.20
2019-02-16T16:50:31.868Z,11.10
2019-02-16T16:53:25.706Z,11.00
2019-02-16T16:56:13.790Z,10.90
2019-02-16T16:59:04.827Z,10.80
2019-02-16T17:02:05.829Z,10.70
2019-02-16T17:04:41.128Z,10.60
2019-02-16T17:07:48.007Z,10.50
2019-02-16T17:10:47.432Z,10.40
2019-02-16T17:13:34.202Z,10.30
2019-02-16T17:16:33.913Z,10.30
2019-02-16T17:19:29.093Z,10.20
2019-02-16T17:22:36.498Z,10.10
2019-02-16T17:25:20.919Z,10.10
2019-02-16T17:28:19.417Z,10.00
2019-02-16T17:31:16.769Z,9.90
2019-02-16T17:34:13.078Z,9.80
2019-02-16T17:37:29.124Z,9.80
2019-02-16T17:40:23.538Z,9.70
2019-02-16T17:43:11.952Z,9.70
2019-02-16T17:46:11.778Z,9.60
2019-02-16T17:48:50.173Z,9.60
2019-02-16T17:51:49.386Z,9.50
2019-02-16T17:54:45.307Z,9.40
2019-02-16T18:01:27.754Z,9.30
2019-02-16T18:04:13.805Z,9.20
2019-02-16T18:07:15.914Z,9.10
2019-02-16T18:26:26.858Z,8.70
2019-02-16T19:15:46.473Z,7.90
2019-02-16T19:30:58.171Z,7.70
2019-02-16T19:34:10.331Z,7.70
2019-02-16T19:36:57.979Z,7.60
2019-02-16T19:43:17.891Z,7.60
2019-02-16T19:46:08.135Z,7.50
2019-02-16T22:54:59.296Z,7.20
2019-02-16T22:57:28.360Z,7.30
2019-02-16T23:00:18.215Z,7.30
2019-02-16T23:02:45.970Z,7.30
2019-02-16T23:05:18.825Z,7.40
2019-02-16T23:07:54.089Z,7.40
2019-02-16T23:10:22.383Z,7.50
2019-02-16T23:12:54.991Z,7.50
2019-02-16T23:15:27.350Z,7.50
2019-02-16T23:17:55.250Z,7.60
2019-02-16T23:20:24.435Z,7.60
2019-02-16T23:22:58.964Z,7.60
2019-02-16T23:25:27.468Z,7.60
2019-02-16T23:27:56.654Z,7.60
2019-02-16T23:30:26.291Z,7.60
2019-02-16T23:32:56.939Z,7.70
2019-02-16T23:35:26.938Z,7.70
2019-02-16T23:37:59.168Z,7.70
2019-02-16T23:40:27.335Z,7.70
2019-02-16T23:42:55.847Z,7.70
2019-02-16T23:45:27.822Z,7.70
2019-02-16T23:48:00.477Z,7.80
2019-02-16T23:50:28.712Z,7.80
2019-02-16T23:52:57.228Z,7.80
2019-02-16T23:55:25.455Z,7.80
2019-02-16T23:57:55.984Z,7.80
